Time;durP1;ratioP1;P1;durP2;ratioP2;P2;SDS_P1;SDS_P2;PMS_P1;PMS_P2;Temp;Humidity;BMP_temperature;BMP_pressure;BME280_temperature;BME280_humidity;BME280_pressure;Samples;Min_cycle;Max_cycle;Signal;HPM_P1;HPM_P2
2023/02/28 00:00:25;;;;;;;6.00;3.83;;;3.60;1.00;;;;;;5049812;28;20485;-53
2023/02/28 00:02:51;;;;;;;5.80;4.07;;;3.70;1.00;;;;;;5040191;28;20450;-53
2023/02/28 00:05:20;;;;;;;5.00;4.40;;;3.60;1.00;;;;;;5046557;28;20890;-54
2023/02/28 00:07:45;;;;;;;4.40;3.97;;;3.60;1.00;;;;;;5043025;28;20215;-52
2023/02/28 00:10:14;;;;;;;5.90;4.10;;;3.60;1.00;;;;;;5047910;28;20466;-54
2023/02/28 00:12:39;;;;;;;6.17;3.77;;;3.60;1.00;;;;;;5047517;28;20439;-54
2023/02/28 00:15:09;;;;;;;5.60;4.30;;;3.70;1.00;;;;;;5044331;28;20455;-53
2023/02/28 00:17:35;;;;;;;5.13;4.00;;;3.60;1.00;;;;;;5039482;28;20210;-54
2023/02/28 00:20:01;;;;;;;8.17;4.37;;;3.60;1.00;;;;;;5039723;28;20482;-52
2023/02/28 00:22:27;;;;;;;5.30;4.80;;;3.50;1.00;;;;;;5041127;28;20198;-55
2023/02/28 00:24:52;;;;;;;5.47;4.90;;;3.50;1.00;;;;;;5043927;28;20457;-52
2023/02/28 00:27:18;;;;;;;5.67;4.30;;;3.60;1.00;;;;;;5043551;28;20195;-56
2023/02/28 00:29:45;;;;;;;8.33;5.10;;;3.50;1.00;;;;;;5046017;28;20226;-57
2023/02/28 00:32:11;;;;;;;7.23;4.67;;;3.50;1.00;;;;;;5046118;28;20188;-54
2023/02/28 00:34:37;;;;;;;6.40;4.70;;;3.50;1.00;;;;;;5040753;28;20451;-54
2023/02/28 00:37:05;;;;;;;6.80;4.83;;;3.50;1.00;;;;;;5040683;28;20231;-51
2023/02/28 00:39:31;;;;;;;5.87;3.80;;;3.50;1.00;;;;;;5048622;28;20604;-56
2023/02/28 00:41:56;;;;;;;6.30;4.33;;;3.70;1.00;;;;;;5040653;28;20454;-56
2023/02/28 00:44:22;;;;;;;5.13;4.63;;;3.70;1.00;;;;;;5045552;28;20271;-55
2023/02/28 00:46:47;;;;;;;5.93;4.17;;;3.60;1.00;;;;;;5038981;28;22127;-54
2023/02/28 00:49:13;;;;;;;9.50;5.10;;;3.40;1.00;;;;;;5043517;28;20744;-53
2023/02/28 00:51:39;;;;;;;7.43;5.63;;;3.40;1.00;;;;;;5039934;28;20651;-53
2023/02/28 00:54:04;;;;;;;5.70;4.80;;;3.50;1.00;;;;;;5044758;28;20228;-56
2023/02/28 00:56:30;;;;;;;7.30;5.00;;;3.40;1.00;;;;;;5048105;28;20191;-54
2023/02/28 00:58:56;;;;;;;6.63;5.77;;;3.20;1.00;;;;;;5047701;28;20648;-52
2023/02/28 01:01:21;;;;;;;7.03;4.90;;;3.10;1.00;;;;;;5055938;28;20741;-54
2023/02/28 01:03:47;;;;;;;6.80;4.80;;;3.10;1.00;;;;;;5043530;28;20188;-53
2023/02/28 01:06:12;;;;;;;10.10;6.37;;;3.10;1.00;;;;;;5046016;28;20278;-53
2023/02/28 01:08:38;;;;;;;6.30;4.90;;;3.10;1.00;;;;;;5046421;28;20225;-53
2023/02/28 01:11:09;;;;;;;6.73;4.63;;;3.10;1.00;;;;;;5049951;28;20278;-53
2023/02/28 01:13:35;;;;;;;7.07;5.73;;;3.10;1.00;;;;;;5051754;28;20542;-55
2023/02/28 01:16:01;;;;;;;5.80;5.20;;;3.10;1.00;;;;;;5047031;28;20455;-54
2023/02/28 01:18:26;;;;;;;6.23;4.57;;;3.10;1.00;;;;;;5051542;28;20574;-54
2023/02/28 01:20:52;;;;;;;8.77;5.37;;;4.70;1.00;;;;;;5046098;28;20214;-55
2023/02/28 01:23:20;;;;;;;8.20;5.00;;;3.20;1.00;;;;;;5044112;28;20673;-54
2023/02/28 01:25:45;;;;;;;9.37;5.10;;;3.20;1.00;;;;;;5046882;28;20188;-55
2023/02/28 01:28:11;;;;;;;4.63;4.20;;;3.20;1.00;;;;;;5055101;28;20450;-54
2023/02/28 01:30:36;;;;;;;6.87;4.30;;;3.20;1.00;;;;;;5044823;28;20238;-55
2023/02/28 01:33:02;;;;;;;6.77;5.30;;;3.20;1.00;;;;;;5047655;28;20243;-54
2023/02/28 01:35:28;;;;;;;7.07;5.03;;;3.20;1.00;;;;;;5046409;28;20554;-54
2023/02/28 01:37:54;;;;;;;5.90;4.60;;;3.20;1.00;;;;;;5041995;28;20262;-55
2023/02/28 01:40:19;;;;;;;7.43;4.83;;;3.20;1.00;;;;;;5039532;28;20643;-53
2023/02/28 01:42:45;;;;;;;7.30;4.60;;;3.20;1.00;;;;;;5040534;28;20706;-54
2023/02/28 01:45:40;;;;;;;12.20;5.23;;;3.10;1.00;;;;;;5042134;28;20451;-54
2023/02/28 01:48:08;;;;;;;5.97;4.40;;;3.00;1.00;;;;;;5025079;28;20612;-53
2023/02/28 01:50:41;;;;;;;5.53;4.60;;;3.10;1.00;;;;;;5040780;28;20797;-55
2023/02/28 01:53:11;;;;;;;6.70;4.80;;;4.10;1.00;;;;;;5038020;28;20516;-55
2023/02/28 01:55:37;;;;;;;7.87;4.43;;;2.90;1.00;;;;;;5041253;28;20629;-50
2023/02/28 01:58:06;;;;;;;6.23;4.77;;;2.90;1.00;;;;;;5040474;28;20457;-57
2023/02/28 02:00:32;;;;;;;6.23;4.93;;;3.00;1.00;;;;;;5037308;28;21962;-57
2023/02/28 02:03:08;;;;;;;7.47;4.60;;;2.90;1.00;;;;;;5039760;28;20470;-56
2023/02/28 02:05:36;;;;;;;7.00;5.23;;;3.00;1.00;;;;;;5039362;28;20441;-56
2023/02/28 02:08:05;;;;;;;6.70;4.73;;;2.90;1.00;;;;;;5045899;28;21034;-57
2023/02/28 02:10:40;;;;;;;9.00;5.00;;;2.90;1.00;;;;;;5045474;28;20470;-57
2023/02/28 02:13:06;;;;;;;6.23;4.40;;;3.00;1.00;;;;;;5049819;28;20801;-58
2023/02/28 02:15:34;;;;;;;5.77;5.03;;;3.00;1.00;;;;;;5043003;28;20478;-56
2023/02/28 02:18:14;;;;;;;5.50;4.90;;;3.00;1.00;;;;;;5045049;28;20212;-56
2023/02/28 02:21:16;;;;;;;4.57;4.13;;;3.00;1.00;;;;;;5043889;28;20489;-57
2023/02/28 02:23:57;;;;;;;8.63;5.20;;;3.00;1.00;;;;;;5045045;28;20470;-57
2023/02/28 02:26:46;;;;;;;6.43;4.97;;;3.00;1.00;;;;;;5045349;28;20441;-56
2023/02/28 02:29:31;;;;;;;5.97;4.77;;;2.60;1.00;;;;;;5049569;28;20478;-57
2023/02/28 02:32:28;;;;;;;8.40;5.60;;;3.00;1.00;;;;;;5045016;28;20443;-57
2023/02/28 02:35:13;;;;;;;6.60;5.33;;;3.00;1.00;;;;;;5042862;28;20505;-55
2023/02/28 02:37:49;;;;;;;7.17;5.63;;;3.00;1.00;;;;;;5040386;28;20539;-55
2023/02/28 02:40:21;;;;;;;10.07;5.37;;;2.90;1.00;;;;;;5046426;28;20532;-57
2023/02/28 02:42:58;;;;;;;7.53;5.37;;;2.30;1.00;;;;;;5043614;28;20453;-55
2023/02/28 02:45:45;;;;;;;9.37;6.77;;;2.80;1.00;;;;;;5045630;28;20442;-53
2023/02/28 02:48:15;;;;;;;7.33;5.53;;;2.90;1.00;;;;;;5045222;28;20451;-54
2023/02/28 02:50:49;;;;;;;7.77;6.10;;;2.80;1.00;;;;;;5037646;28;20451;-55
2023/02/28 02:53:19;;;;;;;10.23;6.13;;;2.90;1.00;;;;;;5044854;28;20494;-53
2023/02/28 02:55:47;;;;;;;6.97;5.33;;;4.90;1.00;;;;;;5044647;28;20947;-55
2023/02/28 02:58:18;;;;;;;6.20;5.47;;;2.90;1.00;;;;;;5049552;28;20474;-54
2023/02/28 03:00:52;;;;;;;8.97;7.00;;;2.80;1.00;;;;;;5051847;28;20492;-53
2023/02/28 03:03:28;;;;;;;6.40;5.60;;;2.80;1.00;;;;;;5047025;28;20775;-51
2023/02/28 03:05:59;;;;;;;8.23;5.80;;;2.70;1.00;;;;;;5047253;28;20585;-53
2023/02/28 03:08:28;;;;;;;7.97;6.00;;;2.70;1.00;;;;;;5056482;28;20533;-54
2023/02/28 03:11:02;;;;;;;6.87;5.80;;;2.70;1.00;;;;;;5046944;28;20512;-51
2023/02/28 03:13:34;;;;;;;9.37;6.73;;;2.70;1.00;;;;;;5048736;28;20465;-56
2023/02/28 03:16:25;;;;;;;8.10;7.00;;;2.70;1.00;;;;;;5048200;28;20463;-54
2023/02/28 03:19:09;;;;;;;6.90;6.27;;;2.70;1.00;;;;;;5042539;28;20504;-55
2023/02/28 03:21:47;;;;;;;9.83;6.37;;;2.70;1.00;;;;;;5047068;28;20442;-56
2023/02/28 03:24:40;;;;;;;9.70;6.93;;;2.60;1.00;;;;;;5045780;28;20450;-56
2023/02/28 03:27:23;;;;;;;10.10;6.00;;;2.50;1.00;;;;;;5027603;28;20446;-57
2023/02/28 03:30:04;;;;;;;10.03;6.27;;;2.30;1.00;;;;;;5052295;28;20452;-56
2023/02/28 03:32:59;;;;;;;9.83;6.60;;;2.30;1.00;;;;;;5044718;28;20457;-56
2023/02/28 03:35:31;;;;;;;8.30;6.70;;;2.30;1.00;;;;;;5033023;28;20457;-56
2023/02/28 03:38:22;;;;;;;9.83;7.20;;;2.30;1.00;;;;;;5050856;28;20495;-55
2023/02/28 03:41:19;;;;;;;9.17;7.30;;;2.30;1.00;;;;;;5048334;28;20488;-56
2023/02/28 03:44:09;;;;;;;8.20;6.50;;;2.20;1.00;;;;;;5042086;28;20977;-56
2023/02/28 03:46:40;;;;;;;9.17;7.00;;;2.10;1.00;;;;;;5038446;28;20441;-57
2023/02/28 03:49:43;;;;;;;8.80;6.17;;;2.10;1.00;;;;;;5036393;28;20541;-56
2023/02/28 03:52:09;;;;;;;10.73;7.60;;;2.10;1.00;;;;;;5024693;28;20538;-60
2023/02/28 03:54:42;;;;;;;12.97;7.63;;;2.10;1.00;;;;;;5036224;28;20449;-56
2023/02/28 03:57:16;;;;;;;11.30;7.70;;;2.00;1.00;;;;;;5035799;28;20455;-55
2023/02/28 03:59:52;;;;;;;11.17;7.67;;;1.90;1.00;;;;;;5053929;28;20462;-55
2023/02/28 04:02:18;;;;;;;7.90;6.93;;;1.90;1.00;;;;;;5044895;28;20447;-56
2023/02/28 04:04:48;;;;;;;11.80;7.60;;;1.90;1.00;;;;;;5035680;28;20446;-56
2023/02/28 04:07:14;;;;;;;12.63;8.87;;;1.80;1.00;;;;;;5036615;28;20488;-57
2023/02/28 04:09:41;;;;;;;10.63;7.93;;;1.80;1.00;;;;;;5038677;28;20502;-55
2023/02/28 04:12:07;;;;;;;12.43;7.97;;;1.80;1.00;;;;;;5035541;28;20458;-56
2023/02/28 04:14:32;;;;;;;9.80;8.80;;;1.80;1.00;;;;;;5037519;28;20440;-56
2023/02/28 04:16:58;;;;;;;10.80;8.00;;;1.70;1.00;;;;;;5038312;28;21078;-56
2023/02/28 04:19:24;;;;;;;10.10;8.60;;;1.60;1.00;;;;;;5047517;28;20247;-56
2023/02/28 04:21:51;;;;;;;10.10;9.03;;;1.60;1.00;;;;;;5046996;28;20190;-55
2023/02/28 04:24:23;;;;;;;9.93;7.17;;;1.50;1.00;;;;;;5043796;28;20645;-56
2023/02/28 04:26:54;;;;;;;10.43;8.20;;;1.50;1.00;;;;;;5045376;28;20549;-56
2023/02/28 04:29:23;;;;;;;11.87;8.63;;;1.50;1.00;;;;;;5044254;28;20834;-56
2023/02/28 04:31:48;;;;;;;11.70;9.07;;;1.50;1.00;;;;;;5049011;28;20456;-56
2023/02/28 04:34:14;;;;;;;11.97;8.73;;;1.50;1.00;;;;;;5044329;28;20973;-56
2023/02/28 04:36:40;;;;;;;12.70;9.50;;;1.40;1.00;;;;;;5043099;28;20203;-56
2023/02/28 04:39:05;;;;;;;9.97;8.70;;;1.30;1.00;;;;;;5048232;28;20261;-55
2023/02/28 04:41:31;;;;;;;10.87;9.20;;;1.40;1.00;;;;;;5050098;28;20196;-55
2023/02/28 04:43:57;;;;;;;12.37;8.70;;;1.40;1.00;;;;;;5051007;28;20202;-57
2023/02/28 04:46:23;;;;;;;10.00;7.97;;;1.40;1.00;;;;;;5048177;28;20549;-56
2023/02/28 04:48:49;;;;;;;11.17;8.70;;;1.40;1.00;;;;;;5040683;28;20553;-56
2023/02/28 04:51:17;;;;;;;11.67;9.93;;;1.30;1.00;;;;;;5040224;28;20454;-55
2023/02/28 04:53:43;;;;;;;12.03;9.27;;;1.20;1.00;;;;;;5041953;28;20268;-56
2023/02/28 04:56:12;;;;;;;12.70;9.13;;;1.20;1.00;;;;;;5045198;28;20538;-57
2023/02/28 04:58:39;;;;;;;11.87;9.13;;;1.20;1.00;;;;;;5049977;28;20250;-57
2023/02/28 05:01:15;;;;;;;15.03;10.10;;;1.20;1.00;;;;;;5050528;28;20460;-55
2023/02/28 05:03:40;;;;;;;10.20;8.03;;;1.20;1.00;;;;;;5045975;28;20457;-55
2023/02/28 05:06:10;;;;;;;13.20;9.60;;;1.20;1.00;;;;;;5047661;28;20482;-56
2023/02/28 05:08:36;;;;;;;16.10;9.40;;;1.20;1.00;;;;;;5047668;28;20528;-56
2023/02/28 05:11:03;;;;;;;12.20;9.33;;;1.20;1.00;;;;;;5046742;28;20580;-57
2023/02/28 05:13:28;;;;;;;12.17;8.97;;;1.10;1.00;;;;;;5047663;28;20225;-57
2023/02/28 05:15:54;;;;;;;11.70;8.80;;;1.20;1.00;;;;;;5050078;28;20457;-57
2023/02/28 05:18:20;;;;;;;13.93;9.90;;;1.10;1.00;;;;;;5049623;28;20224;-57
2023/02/28 05:20:46;;;;;;;12.57;8.97;;;1.10;1.00;;;;;;5051718;28;21004;-56
2023/02/28 05:23:13;;;;;;;12.10;9.10;;;1.10;1.00;;;;;;5047350;28;20315;-58
2023/02/28 05:25:40;;;;;;;14.00;9.80;;;1.10;1.00;;;;;;5050936;28;20460;-57
2023/02/28 05:28:06;;;;;;;12.90;9.63;;;1.10;1.00;;;;;;5047399;28;20451;-57
2023/02/28 05:30:32;;;;;;;10.50;8.93;;;1.10;1.00;;;;;;5048831;28;20544;-59
2023/02/28 05:32:58;;;;;;;10.70;9.43;;;1.20;1.00;;;;;;5045868;28;20540;-58
2023/02/28 05:35:24;;;;;;;10.17;8.90;;;1.10;1.00;;;;;;5053250;28;20195;-58
2023/02/28 05:37:50;;;;;;;10.73;8.90;;;1.10;1.00;;;;;;5051927;28;20451;-58
2023/02/28 05:40:16;;;;;;;14.77;9.53;;;1.10;1.00;;;;;;5051267;28;20473;-58
2023/02/28 05:42:42;;;;;;;11.97;9.33;;;1.10;1.00;;;;;;5048338;28;20192;-58
2023/02/28 05:45:09;;;;;;;13.70;9.60;;;1.20;1.00;;;;;;5050908;28;20449;-59
2023/02/28 05:47:35;;;;;;;17.47;10.93;;;1.20;1.00;;;;;;5048241;28;20467;-58
2023/02/28 05:50:01;;;;;;;10.70;9.60;;;1.20;1.00;;;;;;5049281;28;20457;-61
2023/02/28 05:52:27;;;;;;;11.50;8.63;;;1.20;1.00;;;;;;5047286;28;20959;-57
2023/02/28 05:54:53;;;;;;;18.60;10.87;;;1.20;1.00;;;;;;5047789;28;20465;-58
2023/02/28 05:57:19;;;;;;;16.57;11.20;;;1.20;1.00;;;;;;5050267;28;20454;-59
2023/02/28 05:59:44;;;;;;;15.00;11.03;;;1.10;1.00;;;;;;5050711;28;20523;-57
2023/02/28 06:02:13;;;;;;;14.83;10.50;;;1.10;1.00;;;;;;5048600;28;20660;-59
2023/02/28 06:04:40;;;;;;;13.47;10.20;;;1.00;1.00;;;;;;5045786;28;20203;-58
2023/02/28 06:07:06;;;;;;;15.30;9.90;;;1.10;1.00;;;;;;5047468;28;20974;-58
2023/02/28 06:09:32;;;;;;;24.20;10.23;;;1.10;1.00;;;;;;5049399;28;20468;-59
2023/02/28 06:11:59;;;;;;;16.13;10.33;;;1.20;1.00;;;;;;5044714;28;20453;-58
2023/02/28 06:14:24;;;;;;;13.60;10.77;;;1.10;1.00;;;;;;5048666;28;20265;-58
2023/02/28 06:16:50;;;;;;;17.70;10.63;;;1.10;1.00;;;;;;5049113;28;20509;-59
2023/02/28 06:19:16;;;;;;;13.50;10.47;;;1.10;1.00;;;;;;5048322;28;20218;-60
2023/02/28 06:21:42;;;;;;;16.57;10.73;;;1.10;1.00;;;;;;5044134;28;20263;-58
2023/02/28 06:24:08;;;;;;;13.03;10.30;;;1.10;1.00;;;;;;5048664;28;21604;-54
2023/02/28 06:26:33;;;;;;;14.57;10.53;;;1.10;1.00;;;;;;5063226;28;20441;-53
2023/02/28 06:29:00;;;;;;;17.90;10.00;;;1.20;1.00;;;;;;5050127;28;20202;-53
2023/02/28 06:31:26;;;;;;;16.10;11.27;;;1.20;1.00;;;;;;5049645;28;20184;-53
2023/02/28 06:33:52;;;;;;;14.40;10.43;;;1.10;1.00;;;;;;5046924;28;21001;-54
2023/02/28 06:36:17;;;;;;;15.80;10.50;;;1.20;1.00;;;;;;5045842;28;20684;-53
2023/02/28 06:38:44;;;;;;;12.53;9.43;;;1.20;1.00;;;;;;5047151;28;20227;-55
2023/02/28 06:41:10;;;;;;;15.57;11.23;;;1.20;1.00;;;;;;5045236;28;20451;-54
2023/02/28 06:43:39;;;;;;;16.03;9.90;;;1.20;1.00;;;;;;5058344;28;20509;-54
2023/02/28 06:46:07;;;;;;;12.13;9.83;;;1.20;1.00;;;;;;5047383;28;20907;-55
2023/02/28 06:48:32;;;;;;;14.23;10.30;;;1.30;1.00;;;;;;5046577;28;20616;-54
2023/02/28 06:51:06;;;;;;;17.67;10.90;;;1.20;1.00;;;;;;5052992;28;20432;-54
2023/02/28 06:53:33;;;;;;;16.20;9.97;;;1.20;1.00;;;;;;5043727;28;20286;-53
2023/02/28 06:55:59;;;;;;;14.10;10.87;;;1.30;1.00;;;;;;5045347;28;21023;-54
2023/02/28 06:58:25;;;;;;;17.97;11.60;;;2.40;1.00;;;;;;5048444;28;20569;-55
2023/02/28 07:00:52;;;;;;;15.23;10.33;;;1.40;1.00;;;;;;5047868;28;20442;-54
2023/02/28 07:03:18;;;;;;;13.40;10.80;;;1.60;1.00;;;;;;5052893;28;20473;-59
2023/02/28 07:05:44;;;;;;;14.73;11.53;;;1.70;1.00;;;;;;5048407;28;20826;-55
2023/02/28 07:08:10;;;;;;;14.07;10.83;;;1.80;1.00;;;;;;5047757;28;20541;-56
2023/02/28 07:10:39;;;;;;;13.10;9.90;;;2.00;1.00;;;;;;5049031;28;20531;-56
2023/02/28 07:13:06;;;;;;;11.53;10.03;;;2.10;1.00;;;;;;5049507;28;20196;-54
2023/02/28 07:15:32;;;;;;;14.40;9.60;;;2.30;1.00;;;;;;5049794;28;20529;-55
2023/02/28 07:17:58;;;;;;;13.40;9.93;;;2.40;1.00;;;;;;5049864;28;20656;-54
2023/02/28 07:20:24;;;;;;;13.70;11.17;;;2.60;1.00;;;;;;5049594;28;20646;-54
2023/02/28 07:22:55;;;;;;;13.80;10.10;;;2.90;1.00;;;;;;5050094;28;20906;-54
2023/02/28 07:25:23;;;;;;;18.47;12.13;;;3.10;1.00;;;;;;5051151;28;20430;-53
2023/02/28 07:27:48;;;;;;;16.43;10.53;;;3.30;1.00;;;;;;5069294;28;20532;-54
2023/02/28 07:30:14;;;;;;;16.30;10.53;;;3.20;1.00;;;;;;5069165;28;20943;-56
2023/02/28 07:32:40;;;;;;;16.20;11.30;;;3.10;1.00;;;;;;5069197;28;20192;-53
2023/02/28 07:35:06;;;;;;;17.57;11.10;;;3.10;1.00;;;;;;5064129;28;20188;-55
2023/02/28 07:37:36;;;;;;;21.73;10.40;;;3.20;1.00;;;;;;5050143;28;20192;-54
2023/02/28 07:40:08;;;;;;;13.53;9.73;;;3.30;1.00;;;;;;5052718;28;20481;-56
2023/02/28 07:42:35;;;;;;;13.80;10.20;;;3.40;1.00;;;;;;5046580;28;20455;-55
2023/02/28 07:45:01;;;;;;;11.23;9.50;;;3.60;1.00;;;;;;5047195;28;20442;-55
2023/02/28 07:47:29;;;;;;;19.20;9.93;;;3.70;1.00;;;;;;5049739;28;20473;-53
2023/02/28 07:49:55;;;;;;;14.27;8.80;;;3.80;1.00;;;;;;5049220;28;20505;-55
2023/02/28 07:52:21;;;;;;;12.60;9.80;;;3.80;1.00;;;;;;5045823;28;20995;-54
2023/02/28 07:54:46;;;;;;;16.23;8.97;;;3.90;1.00;;;;;;5050931;28;20533;-56
2023/02/28 07:57:12;;;;;;;14.03;9.93;;;3.90;1.00;;;;;;5048011;28;20666;-55
2023/02/28 07:59:37;;;;;;;15.40;10.93;;;4.10;1.00;;;;;;5068951;28;20214;-53
2023/02/28 08:02:03;;;;;;;13.00;9.30;;;4.30;1.00;;;;;;5046049;28;20642;-53
2023/02/28 08:04:32;;;;;;;12.23;9.67;;;4.50;1.00;;;;;;5048584;28;20210;-54
2023/02/28 08:06:57;;;;;;;13.20;9.73;;;4.50;1.00;;;;;;5049304;28;20213;-55
2023/02/28 08:09:24;;;;;;;11.47;8.93;;;4.70;1.00;;;;;;5047498;28;20474;-54
2023/02/28 08:11:49;;;;;;;13.80;10.00;;;4.90;1.00;;;;;;5044003;28;20188;-55
2023/02/28 08:14:15;;;;;;;12.20;9.30;;;5.40;1.00;;;;;;5048401;28;20472;-53
2023/02/28 08:16:42;;;;;;;14.57;10.37;;;5.70;1.00;;;;;;5047743;28;20258;-55
2023/02/28 08:19:08;;;;;;;12.87;9.53;;;5.70;1.00;;;;;;5040456;28;20305;-53
2023/02/28 08:21:34;;;;;;;13.10;9.70;;;5.70;1.00;;;;;;5046108;28;20451;-54
2023/02/28 08:24:00;;;;;;;13.43;10.57;;;5.70;1.00;;;;;;5048504;28;20443;-56
2023/02/28 08:26:26;;;;;;;17.07;10.03;;;5.80;1.00;;;;;;5047470;28;21102;-54
2023/02/28 08:28:52;;;;;;;16.90;10.80;;;5.80;1.00;;;;;;5048391;28;20318;-54
2023/02/28 08:31:18;;;;;;;12.97;9.93;;;5.70;1.00;;;;;;5045692;28;20482;-54
2023/02/28 08:33:45;;;;;;;12.47;10.20;;;5.60;1.00;;;;;;5044614;28;20283;-54
2023/02/28 08:36:11;;;;;;;14.30;9.10;;;5.70;1.00;;;;;;5044208;28;20429;-55
2023/02/28 08:38:37;;;;;;;13.20;10.33;;;5.70;1.00;;;;;;5050382;28;20448;-54
2023/02/28 08:41:09;;;;;;;12.70;10.30;;;5.80;1.00;;;;;;5052247;28;21025;-53
2023/02/28 08:43:36;;;;;;;12.80;10.57;;;5.80;1.00;;;;;;5046305;28;20849;-54
2023/02/28 08:46:02;;;;;;;14.60;10.50;;;5.90;1.00;;;;;;5047480;28;20425;-54
2023/02/28 08:48:29;;;;;;;17.40;10.03;;;6.00;1.00;;;;;;5046081;28;20450;-54
2023/02/28 08:50:59;;;;;;;13.20;10.10;;;6.00;1.00;;;;;;5044657;28;20908;-53
2023/02/28 08:53:24;;;;;;;12.63;9.70;;;6.00;1.00;;;;;;5045445;28;20540;-52
2023/02/28 08:56:02;;;;;;;12.87;10.40;;;6.10;1.00;;;;;;5064957;28;20995;-53
2023/02/28 08:58:28;;;;;;;18.93;10.40;;;6.20;1.00;;;;;;5064598;28;20202;-52
2023/02/28 09:00:54;;;;;;;20.87;10.27;;;6.40;1.00;;;;;;5055693;28;20943;-53
2023/02/28 09:03:21;;;;;;;14.80;9.53;;;6.50;1.00;;;;;;5048344;28;20180;-54
2023/02/28 09:05:57;;;;;;;12.13;9.10;;;6.50;1.00;;;;;;5048219;28;20446;-53
2023/02/28 09:08:24;;;;;;;12.23;9.17;;;6.50;1.00;;;;;;5047333;28;20450;-54
2023/02/28 09:10:50;;;;;;;12.47;9.40;;;6.60;1.00;;;;;;5050732;28;20973;-54
2023/02/28 09:13:17;;;;;;;12.67;8.80;;;6.70;1.00;;;;;;5051114;28;20471;-54
2023/02/28 09:15:42;;;;;;;11.60;7.47;;;6.70;1.00;;;;;;5050102;28;20473;-53
2023/02/28 09:18:08;;;;;;;10.43;7.33;;;6.40;1.00;;;;;;5049323;28;20505;-54
2023/02/28 09:20:33;;;;;;;9.50;7.50;;;6.20;1.00;;;;;;5049860;28;20212;-56
2023/02/28 09:22:59;;;;;;;12.70;8.30;;;6.10;1.00;;;;;;5052304;28;20641;-54
2023/02/28 09:25:25;;;;;;;10.87;8.17;;;6.00;1.00;;;;;;5052627;28;20184;-54
2023/02/28 09:27:50;;;;;;;14.23;8.20;;;5.90;1.00;;;;;;5051280;28;20180;-55
2023/02/28 09:30:16;;;;;;;12.77;8.07;;;5.60;1.00;;;;;;5055120;28;20715;-53
2023/02/28 09:32:42;;;;;;;9.10;7.50;;;5.50;1.00;;;;;;5051378;28;20664;-54
2023/02/28 09:35:13;;;;;;;9.00;8.07;;;5.60;1.00;;;;;;5049759;28;20446;-53
2023/02/28 09:37:38;;;;;;;12.37;9.63;;;5.60;1.00;;;;;;5059421;28;20527;-53
2023/02/28 09:40:05;;;;;;;10.10;8.30;;;5.70;1.00;;;;;;5071319;28;20498;-54
2023/02/28 09:42:33;;;;;;;14.57;8.97;;;5.70;1.00;;;;;;5059796;28;20230;-52
2023/02/28 09:45:01;;;;;;;13.00;8.53;;;5.60;1.00;;;;;;5059685;28;20412;-52
2023/02/28 09:47:33;;;;;;;10.10;8.47;;;5.80;1.00;;;;;;5071011;28;21011;-53
2023/02/28 09:50:07;;;;;;;11.07;7.90;;;5.90;1.00;;;;;;5060569;28;20454;-54
2023/02/28 09:52:34;;;;;;;11.10;8.23;;;6.10;1.00;;;;;;5047713;28;20997;-53
2023/02/28 09:55:19;;;;;;;8.27;7.13;;;6.30;1.00;;;;;;5051125;28;20433;-54
2023/02/28 09:57:46;;;;;;;8.10;5.73;;;6.10;1.00;;;;;;5048691;28;20443;-55
2023/02/28 10:00:31;;;;;;;9.00;7.13;;;6.00;1.00;;;;;;5054917;28;20476;-54
2023/02/28 10:03:35;;;;;;;13.83;7.10;;;5.80;1.00;;;;;;5050277;28;20797;-54
2023/02/28 10:06:21;;;;;;;7.23;6.40;;;6.10;1.00;;;;;;5047217;28;20486;-54
2023/02/28 10:09:16;;;;;;;9.67;7.20;;;6.60;1.00;;;;;;5054825;28;20446;-53
2023/02/28 10:11:43;;;;;;;12.37;8.13;;;6.90;1.00;;;;;;5034182;28;20486;-53
2023/02/28 10:14:21;;;;;;;12.00;7.43;;;7.50;1.00;;;;;;5050564;28;20773;-52
2023/02/28 10:17:26;;;;;;;13.33;7.83;;;7.80;1.00;;;;;;5047689;28;20449;-54
2023/02/28 10:20:01;;;;;;;9.40;7.17;;;7.90;99.90;;;;;;4986180;28;20572;-55
2023/02/28 10:22:29;;;;;;;13.93;6.67;;;8.00;99.90;;;;;;5043216;28;20925;-56
2023/02/28 10:24:59;;;;;;;12.90;6.80;;;7.60;99.90;;;;;;5050792;28;20484;-55
2023/02/28 10:27:29;;;;;;;8.97;6.60;;;7.20;99.90;;;;;;5050472;28;20438;-53
2023/02/28 10:29:57;;;;;;;8.77;7.00;;;7.20;99.90;;;;;;5051469;28;20481;-53
2023/02/28 10:32:29;;;;;;;11.40;7.57;;;6.80;99.90;;;;;;5050384;28;20440;-54
2023/02/28 10:35:15;;;;;;;10.90;7.17;;;6.50;99.90;;;;;;5050451;28;20430;-54
2023/02/28 10:37:42;;;;;;;10.37;7.80;;;6.60;99.90;;;;;;5050307;28;20450;-55
2023/02/28 10:40:20;;;;;;;12.30;7.47;;;6.10;99.90;;;;;;5050534;28;21300;-54
2023/02/28 10:42:55;;;;;;;8.27;7.47;;;6.20;99.90;;;;;;5050191;28;20442;-53
2023/02/28 10:45:20;;;;;;;12.23;8.10;;;6.20;99.90;;;;;;5050497;28;20431;-53
2023/02/28 10:47:59;;;;;;;10.77;8.77;;;6.30;99.90;;;;;;5050391;28;20476;-54
2023/02/28 10:50:58;;;;;;;12.20;9.30;;;6.60;99.90;;;;;;5050325;28;20188;-54
2023/02/28 10:53:27;;;;;;;11.00;8.93;;;7.30;99.90;;;;;;5015795;28;20474;-53
2023/02/28 10:56:10;;;;;;;10.57;8.60;;;7.60;99.90;;;;;;5049942;28;20533;-54
2023/02/28 10:58:51;;;;;;;9.87;8.33;;;8.00;99.90;;;;;;5049972;28;20920;-54
2023/02/28 11:01:39;;;;;;;12.07;9.63;;;8.30;99.90;;;;;;5049770;28;20427;-53
2023/02/28 11:04:29;;;;;;;10.50;8.07;;;8.40;99.90;;;;;;5040328;28;20474;-55
2023/02/28 11:07:19;;;;;;;12.90;8.97;;;8.00;99.90;;;;;;5049829;28;20402;-55
2023/02/28 11:09:49;;;;;;;12.00;9.00;;;8.20;99.90;;;;;;5049971;28;20572;-54
2023/02/28 11:12:25;;;;;;;12.37;9.10;;;8.40;99.90;;;;;;5055738;28;20470;-53
2023/02/28 11:15:05;;;;;;;10.73;8.57;;;8.50;99.90;;;;;;5050713;28;20823;-53
2023/02/28 11:17:32;;;;;;;12.87;9.20;;;7.90;99.90;;;;;;5069566;28;20434;-53
2023/02/28 11:20:17;;;;;;;11.73;9.83;;;7.60;99.90;;;;;;5069367;28;20468;-55
2023/02/28 11:22:45;;;;;;;11.77;7.87;;;7.00;99.90;;;;;;5058091;28;20445;-53
2023/02/28 11:25:24;;;;;;;12.27;8.13;;;6.60;99.90;;;;;;5052275;28;20434;-55
2023/02/28 11:27:53;;;;;;;9.70;8.07;;;5.90;99.90;;;;;;5049350;28;20430;-54
2023/02/28 11:30:38;;;;;;;8.10;5.40;;;5.60;99.90;;;;;;5048892;28;20421;-53
2023/02/28 11:33:30;;;;;;;10.07;8.60;;;5.60;99.90;;;;;;5057429;28;20466;-54
2023/02/28 11:36:01;;;;;;;13.20;9.33;;;5.60;99.90;;;;;;5049062;28;20435;-53
2023/02/28 11:38:27;;;;;;;10.83;9.03;;;5.90;99.90;;;;;;5050223;28;20497;-53
2023/02/28 11:40:57;;;;;;;11.17;8.37;;;6.10;99.90;;;;;;5049182;28;20413;-55
2023/02/28 11:44:07;;;;;;;8.13;7.33;;;6.40;99.90;;;;;;5049039;28;20502;-53
2023/02/28 11:46:49;;;;;;;10.53;8.77;;;6.70;99.90;;;;;;4993309;28;20540;-54
2023/02/28 11:49:45;;;;;;;11.00;9.07;;;7.10;1.00;;;;;;5046346;28;20920;-53
2023/02/28 11:52:26;;;;;;;12.27;7.83;;;8.80;99.90;;;;;;5049400;28;20473;-55
2023/02/28 11:55:21;;;;;;;14.13;8.70;;;7.90;99.90;;;;;;5049052;28;20488;-55
2023/02/28 11:58:07;;;;;;;13.07;9.80;;;7.80;99.90;;;;;;5044046;28;20938;-54
2023/02/28 12:00:36;;;;;;;10.13;9.03;;;7.70;99.90;;;;;;5068957;28;20437;-55
2023/02/28 12:03:27;;;;;;;11.07;8.80;;;7.80;99.90;;;;;;5068907;28;20426;-55
2023/02/28 12:06:17;;;;;;;11.60;9.03;;;8.00;99.90;;;;;;5068409;28;20518;-55
2023/02/28 12:08:56;;;;;;;16.00;9.70;;;8.40;99.90;;;;;;5050907;28;20450;-53
2023/02/28 12:11:53;;;;;;;13.73;9.33;;;8.70;99.90;;;;;;5047835;28;20488;-54
2023/02/28 12:14:25;;;;;;;14.27;10.20;;;8.70;99.90;;;;;;5061603;28;20490;-54
2023/02/28 12:17:13;;;;;;;11.83;9.30;;;7.80;99.90;;;;;;5068844;28;20526;-52
2023/02/28 12:19:49;;;;;;;10.10;8.40;;;6.80;99.90;;;;;;5047809;28;20617;-53
2023/02/28 12:22:43;;;;;;;11.90;7.87;;;6.60;99.90;;;;;;5049732;28;20446;-52
2023/02/28 12:25:40;;;;;;;9.20;8.30;;;6.60;99.90;;;;;;5046083;28;20469;-54
2023/02/28 12:28:09;;;;;;;11.40;8.70;;;6.60;99.90;;;;;;5053978;28;20456;-53
2023/02/28 12:30:39;;;;;;;12.27;8.90;;;6.90;99.90;;;;;;5060647;28;20461;-56
2023/02/28 12:33:12;;;;;;;11.10;8.77;;;7.10;99.90;;;;;;5048492;28;20485;-52
2023/02/28 12:36:04;;;;;;;11.73;9.83;;;7.00;99.90;;;;;;5048279;28;20422;-53
2023/02/28 12:38:37;;;;;;;12.37;9.83;;;7.20;99.90;;;;;;5050589;28;20470;-54
2023/02/28 12:41:06;;;;;;;18.90;10.00;;;7.30;99.90;;;;;;5048555;28;20450;-54
2023/02/28 12:43:47;;;;;;;10.33;8.50;;;7.30;99.90;;;;;;5054647;28;20888;-51
2023/02/28 12:46:24;;;;;;;12.60;8.67;;;7.10;99.90;;;;;;5070024;28;20472;-54
2023/02/28 12:48:56;;;;;;;18.70;9.70;;;6.70;99.90;;;;;;5071373;28;21076;-56
2023/02/28 12:51:22;;;;;;;13.50;8.97;;;6.20;99.90;;;;;;5051490;28;20460;-52
2023/02/28 12:53:56;;;;;;;11.73;9.33;;;5.90;99.90;;;;;;5051718;28;20466;-53
2023/02/28 12:56:34;;;;;;;11.50;8.10;;;5.90;99.90;;;;;;5059010;28;20445;-54
2023/02/28 12:59:06;;;;;;;15.90;10.03;;;6.00;99.90;;;;;;5072256;28;20436;-55
2023/02/28 13:01:43;;;;;;;11.90;8.70;;;6.10;99.90;;;;;;5059434;28;20900;-52
2023/02/28 13:04:11;;;;;;;14.90;10.57;;;6.00;99.90;;;;;;5051971;28;20518;-55
2023/02/28 13:06:52;;;;;;;17.13;10.77;;;6.00;99.90;;;;;;5052075;28;20964;-53
2023/02/28 13:09:19;;;;;;;15.27;10.63;;;6.00;1.00;;;;;;5056035;28;21222;-53
2023/02/28 13:11:47;;;;;;;11.03;9.17;;;6.00;99.90;;;;;;5050051;28;20871;-53
2023/02/28 13:14:24;;;;;;;15.33;10.23;;;5.90;99.90;;;;;;5051635;28;20796;-55
2023/02/28 13:17:12;;;;;;;11.97;9.27;;;5.90;1.00;;;;;;5051547;28;20453;-52